Time;durP1;ratioP1;P1;durP2;ratioP2;P2;SDS_P1;SDS_P2;PMS_P1;PMS_P2;Temp;Humidity;BMP_temperature;BMP_pressure;BME280_temperature;BME280_humidity;BME280_pressure;Samples;Min_cycle;Max_cycle;Signal;HPM_P1;HPM_P2
2023/04/06 00:00:53;;;;;;;10.13;7.97;;;4.50;99.90;;;;;;5199586;28;20450;-50
2023/04/06 00:03:24;;;;;;;19.00;10.57;;;4.50;99.90;;;;;;5199653;28;20625;-49
2023/04/06 00:05:55;;;;;;;13.30;8.17;;;4.60;99.90;;;;;;5201541;28;20235;-48
2023/04/06 00:08:26;;;;;;;13.30;6.00;;;4.80;99.90;;;;;;5204509;28;20621;-49
2023/04/06 00:10:57;;;;;;;12.37;5.90;;;4.80;99.90;;;;;;5199516;28;20459;-51
2023/04/06 00:13:28;;;;;;;9.60;6.57;;;4.70;99.90;;;;;;5190129;28;20434;-49
2023/04/06 00:15:59;;;;;;;13.80;6.50;;;4.70;99.90;;;;;;5198606;28;20181;-49
2023/04/06 00:18:29;;;;;;;13.07;5.63;;;4.70;99.90;;;;;;5196826;28;20186;-49
2023/04/06 00:21:00;;;;;;;7.27;5.60;;;4.70;99.90;;;;;;5199750;28;20198;-51
2023/04/06 00:23:31;;;;;;;8.23;7.23;;;4.70;99.90;;;;;;5195203;28;20461;-50
2023/04/06 00:26:02;;;;;;;11.90;6.10;;;4.50;99.90;;;;;;5200670;28;20225;-49
2023/04/06 00:28:32;;;;;;;12.10;7.50;;;4.50;99.90;;;;;;5195705;28;20213;-50
2023/04/06 00:31:03;;;;;;;7.13;5.83;;;4.40;99.90;;;;;;5179729;28;20238;-49
2023/04/06 00:33:34;;;;;;;8.10;5.53;;;4.40;99.90;;;;;;5208043;28;20186;-48
2023/04/06 00:36:05;;;;;;;9.87;5.00;;;4.30;99.90;;;;;;5198315;28;20189;-50
2023/04/06 00:38:36;;;;;;;10.80;6.70;;;4.30;99.90;;;;;;5189123;28;20184;-50
2023/04/06 00:41:06;;;;;;;11.53;7.30;;;4.30;99.90;;;;;;5195325;28;20529;-50
2023/04/06 00:43:37;;;;;;;8.77;6.97;;;4.20;99.90;;;;;;5207560;28;20655;-50
2023/04/06 00:46:08;;;;;;;6.87;5.23;;;4.50;99.90;;;;;;5236015;28;20184;-49
2023/04/06 00:48:39;;;;;;;6.37;4.77;;;4.50;99.90;;;;;;5191366;28;20551;-50
2023/04/06 00:51:10;;;;;;;4.50;4.17;;;4.40;99.90;;;;;;5203362;28;20730;-49
2023/04/06 00:53:40;;;;;;;10.03;4.60;;;4.40;99.90;;;;;;5205185;28;20513;-53
2023/04/06 00:56:11;;;;;;;9.03;4.80;;;4.30;99.90;;;;;;5203610;28;20529;-49
2023/04/06 00:58:42;;;;;;;5.40;4.03;;;4.20;99.90;;;;;;5203861;28;20184;-49
2023/04/06 01:01:12;;;;;;;5.20;3.60;;;4.20;99.90;;;;;;5200796;28;20685;-50
2023/04/06 01:03:44;;;;;;;5.13;3.80;;;4.10;99.90;;;;;;5205476;28;20181;-49
2023/04/06 01:06:15;;;;;;;3.60;3.33;;;4.10;99.90;;;;;;5199792;28;20182;-49
2023/04/06 01:08:45;;;;;;;5.20;4.40;;;4.10;99.90;;;;;;5194265;28;21025;-49
2023/04/06 01:11:17;;;;;;;3.53;3.17;;;4.00;99.90;;;;;;5205193;28;20199;-49
2023/04/06 01:13:48;;;;;;;3.27;2.93;;;4.10;99.90;;;;;;5202349;28;20210;-49
2023/04/06 01:16:19;;;;;;;2.77;2.67;;;4.10;99.90;;;;;;5191190;28;20486;-50
2023/04/06 01:18:50;;;;;;;3.43;3.17;;;4.10;99.90;;;;;;5205556;28;20188;-48
2023/04/06 01:21:21;;;;;;;4.70;3.43;;;4.10;99.90;;;;;;5205398;28;20205;-49
2023/04/06 01:23:51;;;;;;;8.33;4.03;;;4.20;99.90;;;;;;5191033;28;20794;-48
2023/04/06 01:26:22;;;;;;;5.53;2.77;;;4.20;99.90;;;;;;5205828;28;20277;-48
2023/04/06 01:28:53;;;;;;;10.00;3.13;;;4.20;99.90;;;;;;5197882;28;20206;-51
2023/04/06 01:31:24;;;;;;;3.43;3.07;;;4.30;99.90;;;;;;5183969;28;20615;-50
2023/04/06 01:33:55;;;;;;;4.40;3.03;;;4.20;99.90;;;;;;5202013;28;20743;-50
2023/04/06 01:36:26;;;;;;;4.47;3.00;;;4.20;99.90;;;;;;5202114;28;20470;-49
2023/04/06 01:38:57;;;;;;;5.73;3.53;;;4.30;99.90;;;;;;5192519;28;20470;-50
2023/04/06 01:41:27;;;;;;;5.03;3.50;;;4.20;99.90;;;;;;5195650;28;20882;-50
2023/04/06 01:43:58;;;;;;;5.47;3.50;;;4.40;99.90;;;;;;5193630;28;20277;-49
2023/04/06 01:46:29;;;;;;;5.97;3.70;;;4.30;99.90;;;;;;5180808;28;20189;-50
2023/04/06 01:49:00;;;;;;;6.40;3.73;;;4.20;99.90;;;;;;5196894;28;20201;-49
2023/04/06 01:51:30;;;;;;;5.47;3.40;;;4.30;99.90;;;;;;5204486;28;20209;-49
2023/04/06 01:54:01;;;;;;;3.90;3.47;;;4.10;99.90;;;;;;5201546;28;20432;-49
2023/04/06 01:56:32;;;;;;;4.53;3.30;;;4.10;99.90;;;;;;5196665;28;20180;-51
2023/04/06 01:59:02;;;;;;;3.37;3.03;;;4.00;99.90;;;;;;5193303;28;20239;-51
2023/04/06 02:01:33;;;;;;;5.33;3.53;;;4.00;99.90;;;;;;5203491;28;20215;-49
2023/04/06 02:04:04;;;;;;;4.70;3.50;;;3.90;99.90;;;;;;5226334;28;20180;-48
2023/04/06 02:06:34;;;;;;;4.77;2.83;;;3.90;99.90;;;;;;5207059;28;20571;-48
2023/04/06 02:09:05;;;;;;;3.83;3.10;;;3.90;99.90;;;;;;5191375;28;20287;-49
2023/04/06 02:11:36;;;;;;;3.50;3.30;;;3.80;99.90;;;;;;5204579;28;20185;-49
2023/04/06 02:14:06;;;;;;;3.67;3.37;;;3.80;99.90;;;;;;5205587;28;20192;-49
2023/04/06 02:16:37;;;;;;;5.80;3.80;;;3.80;99.90;;;;;;5204100;28;20188;-53
2023/04/06 02:19:07;;;;;;;3.63;3.27;;;3.80;99.90;;;;;;5192311;28;20185;-50
2023/04/06 02:21:38;;;;;;;8.40;3.43;;;3.80;99.90;;;;;;5205627;28;20184;-49
2023/04/06 02:24:09;;;;;;;7.90;3.40;;;4.00;99.90;;;;;;5192577;28;20652;-50
2023/04/06 02:26:40;;;;;;;3.60;3.30;;;3.90;99.90;;;;;;5203853;28;20180;-50
2023/04/06 02:29:10;;;;;;;5.87;3.50;;;3.80;99.90;;;;;;5208307;28;20278;-49
2023/04/06 02:31:41;;;;;;;4.20;3.90;;;3.90;99.90;;;;;;5201818;28;20266;-49
2023/04/06 02:34:17;;;;;;;6.30;3.70;;;3.80;99.90;;;;;;5198996;28;20195;-49
2023/04/06 02:36:47;;;;;;;5.87;3.53;;;3.70;99.90;;;;;;5186372;28;20712;-50
2023/04/06 02:39:19;;;;;;;12.13;4.20;;;3.70;99.90;;;;;;5193267;28;20578;-48
2023/04/06 02:41:50;;;;;;;4.60;4.20;;;3.60;99.90;;;;;;5200760;28;20241;-50
2023/04/06 02:44:20;;;;;;;6.60;4.77;;;3.60;99.90;;;;;;5188150;28;20966;-49
2023/04/06 02:46:51;;;;;;;4.97;4.60;;;3.40;99.90;;;;;;5199466;28;20195;-50
2023/04/06 02:49:22;;;;;;;4.97;4.40;;;3.40;99.90;;;;;;5188655;28;21164;-50
2023/04/06 02:51:52;;;;;;;3.70;3.50;;;3.40;99.90;;;;;;5204906;28;20259;-50
2023/04/06 02:54:23;;;;;;;4.87;3.80;;;3.40;99.90;;;;;;5199868;28;20282;-49
2023/04/06 02:56:54;;;;;;;4.10;3.80;;;3.20;99.90;;;;;;5203516;28;20246;-48
2023/04/06 02:59:25;;;;;;;12.03;4.37;;;3.10;99.90;;;;;;5192522;28;20215;-49
2023/04/06 03:01:57;;;;;;;4.87;4.37;;;3.00;99.90;;;;;;5200902;28;20210;-49
2023/04/06 03:04:28;;;;;;;5.10;4.30;;;3.00;99.90;;;;;;5197652;28;21011;-49
2023/04/06 03:06:58;;;;;;;9.93;4.50;;;2.90;99.90;;;;;;5203469;28;20523;-49
2023/04/06 03:09:29;;;;;;;24.67;8.77;;;2.90;99.90;;;;;;5194269;28;20211;-49
2023/04/06 03:12:00;;;;;;;13.47;4.70;;;2.80;99.90;;;;;;5198122;28;20190;-50
2023/04/06 03:14:30;;;;;;;4.57;3.90;;;2.80;99.90;;;;;;5199242;28;20176;-50
2023/04/06 03:17:02;;;;;;;12.80;4.73;;;2.80;99.90;;;;;;5195042;28;20548;-50
2023/04/06 03:19:32;;;;;;;9.23;4.27;;;2.80;99.90;;;;;;5219741;28;20203;-49
2023/04/06 03:22:03;;;;;;;4.27;3.87;;;2.70;99.90;;;;;;5223745;28;20434;-48
2023/04/06 03:24:33;;;;;;;7.47;5.17;;;2.70;99.90;;;;;;5202061;28;20195;-50
2023/04/06 03:27:04;;;;;;;9.60;5.80;;;2.70;99.90;;;;;;5189665;28;20201;-48
2023/04/06 03:29:35;;;;;;;5.80;5.10;;;2.70;99.90;;;;;;5198524;28;20306;-50
2023/04/06 03:32:06;;;;;;;10.70;6.10;;;2.60;99.90;;;;;;5189217;28;20184;-49
2023/04/06 03:34:36;;;;;;;8.03;6.50;;;2.50;99.90;;;;;;5200675;28;20446;-50
2023/04/06 03:37:07;;;;;;;8.83;5.50;;;2.50;99.90;;;;;;5220212;28;20196;-48
2023/04/06 03:39:38;;;;;;;19.93;6.43;;;2.40;99.90;;;;;;5202848;28;20279;-48
2023/04/06 03:42:08;;;;;;;8.13;6.80;;;2.40;99.90;;;;;;5201344;28;20196;-48
2023/04/06 03:44:39;;;;;;;12.50;7.00;;;2.30;99.90;;;;;;5197929;28;22129;-50
2023/04/06 03:47:10;;;;;;;8.07;6.30;;;2.20;99.90;;;;;;5202072;28;20215;-50
2023/04/06 03:49:40;;;;;;;9.87;5.67;;;2.20;99.90;;;;;;5204487;28;20274;-49
2023/04/06 03:52:11;;;;;;;8.50;5.93;;;2.10;99.90;;;;;;5183900;28;20267;-47
2023/04/06 03:54:42;;;;;;;8.90;6.20;;;2.10;99.90;;;;;;5197610;28;20229;-49
2023/04/06 03:57:13;;;;;;;11.93;6.20;;;2.00;99.90;;;;;;5189369;28;20210;-49
2023/04/06 03:59:43;;;;;;;8.80;5.97;;;2.00;99.90;;;;;;5186101;28;20207;-49
2023/04/06 04:02:14;;;;;;;7.03;6.33;;;2.00;99.90;;;;;;5202924;28;20267;-48
2023/04/06 04:04:45;;;;;;;6.27;5.57;;;2.00;99.90;;;;;;5198817;28;20222;-49
2023/04/06 04:07:15;;;;;;;9.07;6.00;;;1.90;99.90;;;;;;5203109;28;20194;-49
2023/04/06 04:09:46;;;;;;;8.50;6.27;;;1.90;99.90;;;;;;5199105;28;20215;-49
2023/04/06 04:12:17;;;;;;;6.70;6.03;;;1.80;99.90;;;;;;5197829;28;20266;-50
2023/04/06 04:14:48;;;;;;;10.30;6.50;;;1.80;99.90;;;;;;5200244;28;20495;-49
2023/04/06 04:17:19;;;;;;;7.27;6.33;;;1.80;99.90;;;;;;5198900;28;20203;-49
2023/04/06 04:19:50;;;;;;;11.03;6.03;;;1.80;99.90;;;;;;5203631;28;20207;-48
2023/04/06 04:22:20;;;;;;;9.80;6.00;;;1.80;99.90;;;;;;5203533;28;20449;-49
2023/04/06 04:24:51;;;;;;;15.10;5.97;;;1.80;99.90;;;;;;5219808;28;20187;-50
2023/04/06 04:27:22;;;;;;;16.70;6.87;;;1.80;99.90;;;;;;5187858;28;20200;-49
2023/04/06 04:29:52;;;;;;;6.40;5.20;;;1.80;99.90;;;;;;5195767;28;20218;-49
2023/04/06 04:32:27;;;;;;;6.80;5.90;;;1.80;99.90;;;;;;5197358;28;20188;-49
2023/04/06 04:34:57;;;;;;;13.53;6.97;;;1.80;99.90;;;;;;5196893;28;20181;-49
2023/04/06 04:37:28;;;;;;;9.73;6.73;;;1.80;99.90;;;;;;5196535;28;21185;-49
2023/04/06 04:39:59;;;;;;;6.50;5.80;;;1.90;99.90;;;;;;5200999;28;20303;-50
2023/04/06 04:42:29;;;;;;;11.83;6.37;;;1.90;99.90;;;;;;5183212;28;20230;-49
2023/04/06 04:45:00;;;;;;;12.00;6.30;;;1.80;99.90;;;;;;5195919;28;20658;-49
2023/04/06 04:47:30;;;;;;;8.10;6.33;;;1.80;99.90;;;;;;5174035;28;20293;-48
2023/04/06 04:50:01;;;;;;;9.67;6.10;;;1.90;99.90;;;;;;5182989;28;20216;-48
2023/04/06 04:52:32;;;;;;;9.97;6.70;;;1.90;99.90;;;;;;5194667;28;20188;-49
2023/04/06 04:55:03;;;;;;;11.40;6.60;;;2.00;99.90;;;;;;5195275;28;20184;-49
2023/04/06 04:57:33;;;;;;;7.93;6.50;;;2.00;99.90;;;;;;5200908;28;20187;-50
2023/04/06 05:00:04;;;;;;;8.70;5.97;;;2.00;99.90;;;;;;5199330;28;20215;-51
2023/04/06 05:02:35;;;;;;;11.23;6.43;;;2.00;99.90;;;;;;5200551;28;20276;-48
2023/04/06 05:05:06;;;;;;;9.40;6.70;;;2.10;99.90;;;;;;5220430;28;22039;-48
2023/04/06 05:07:37;;;;;;;13.10;7.60;;;2.10;99.90;;;;;;5199109;28;20198;-48
2023/04/06 05:10:08;;;;;;;9.27;7.60;;;2.10;99.90;;;;;;5211503;28;20827;-47
2023/04/06 05:12:39;;;;;;;6.90;6.20;;;2.20;99.90;;;;;;5203416;28;20190;-49
2023/04/06 05:15:10;;;;;;;10.20;6.30;;;2.60;99.90;;;;;;5216599;28;20454;-52
2023/04/06 05:17:41;;;;;;;17.53;7.40;;;3.00;99.90;;;;;;5204574;28;20434;-48
2023/04/06 05:20:12;;;;;;;17.20;6.73;;;3.60;99.90;;;;;;5173656;28;20217;-48
2023/04/06 05:22:42;;;;;;;12.17;6.90;;;4.50;99.90;;;;;;5200898;28;20193;-50
2023/04/06 05:25:14;;;;;;;7.80;5.50;;;5.20;99.90;;;;;;5199218;28;20628;-50
2023/04/06 05:27:45;;;;;;;6.60;6.00;;;5.60;99.90;;;;;;5196912;28;20187;-49
2023/04/06 05:30:16;;;;;;;6.53;5.93;;;5.60;99.90;;;;;;5203860;28;21644;-49
2023/04/06 05:32:47;;;;;;;7.47;5.50;;;5.60;99.90;;;;;;5197507;28;20188;-50
2023/04/06 05:35:17;;;;;;;6.83;5.30;;;5.60;99.90;;;;;;5190215;28;20523;-50
2023/04/06 05:37:48;;;;;;;7.80;5.40;;;6.00;99.90;;;;;;5187108;28;20440;-47
2023/04/06 05:40:19;;;;;;;11.20;5.47;;;6.50;99.90;;;;;;5191153;28;20219;-49
2023/04/06 05:42:50;;;;;;;8.83;6.33;;;6.40;99.90;;;;;;5195282;28;20625;-48
2023/04/06 05:45:21;;;;;;;7.87;5.60;;;6.10;99.90;;;;;;5171965;28;20199;-47
2023/04/06 05:47:51;;;;;;;7.40;5.63;;;6.00;99.90;;;;;;5185243;28;20880;-52
2023/04/06 05:50:22;;;;;;;8.23;5.30;;;6.10;99.90;;;;;;5191038;28;20537;-49
2023/04/06 05:52:53;;;;;;;6.90;5.20;;;6.40;99.90;;;;;;5199544;28;20653;-47
2023/04/06 05:55:23;;;;;;;6.30;5.30;;;7.40;99.90;;;;;;5203559;28;20211;-51
2023/04/06 05:57:54;;;;;;;7.90;5.40;;;9.40;91.50;;;;;;5185554;28;20199;-49
2023/04/06 06:00:26;;;;;;;6.53;5.10;;;11.50;66.60;;;;;;5198362;28;20226;-48
2023/04/06 06:02:56;;;;;;;7.37;5.10;;;13.30;56.90;;;;;;5213327;28;20211;-50
2023/04/06 06:05:28;;;;;;;7.20;4.97;;;15.20;47.00;;;;;;5199541;28;20445;-49
2023/04/06 06:08:01;;;;;;;5.87;5.37;;;16.50;43.50;;;;;;5204336;28;20192;-51
2023/04/06 06:10:32;;;;;;;6.57;5.20;;;17.90;39.40;;;;;;5198190;28;20466;-48
2023/04/06 06:13:03;;;;;;;6.10;5.53;;;19.00;37.00;;;;;;5197497;28;20438;-48
2023/04/06 06:15:33;;;;;;;11.30;7.10;;;20.00;34.60;;;;;;5213297;28;20560;-50
2023/04/06 06:18:04;;;;;;;13.70;9.57;;;20.50;33.20;;;;;;5200165;28;20177;-49
2023/04/06 06:20:35;;;;;;;17.77;12.00;;;21.00;32.00;;;;;;5185255;28;20223;-50
2023/04/06 06:23:05;;;;;;;5.70;5.20;;;21.30;31.10;;;;;;5191721;28;20299;-51
2023/04/06 06:25:36;;;;;;;7.87;5.17;;;20.80;30.50;;;;;;5186092;28;20230;-50
2023/04/06 06:28:07;;;;;;;7.30;4.80;;;19.80;31.70;;;;;;5190041;28;20187;-49
2023/04/06 06:30:37;;;;;;;12.03;4.97;;;19.70;32.20;;;;;;5206109;28;20223;-50
2023/04/06 06:33:08;;;;;;;20.03;5.60;;;19.00;32.30;;;;;;5186814;28;20179;-48
2023/04/06 06:35:39;;;;;;;6.93;4.70;;;19.00;32.80;;;;;;5203458;28;20179;-51
2023/04/06 06:38:09;;;;;;;5.03;4.53;;;19.60;33.20;;;;;;5213591;28;20180;-51
2023/04/06 06:40:41;;;;;;;4.90;4.50;;;20.60;31.30;;;;;;5216908;28;20219;-48
2023/04/06 06:43:11;;;;;;;5.63;5.00;;;21.20;30.50;;;;;;5182062;28;20210;-50
2023/04/06 06:45:43;;;;;;;7.30;5.17;;;20.60;29.80;;;;;;5207566;28;20450;-49
2023/04/06 06:48:14;;;;;;;5.47;4.70;;;20.80;30.00;;;;;;5213836;28;20242;-48
2023/04/06 06:50:46;;;;;;;9.27;5.13;;;20.00;29.80;;;;;;5199674;28;20467;-52
2023/04/06 06:53:17;;;;;;;5.30;4.80;;;19.20;30.50;;;;;;5180559;28;20188;-50
2023/04/06 06:55:50;;;;;;;10.53;5.70;;;19.50;31.40;;;;;;5186252;28;20934;-54
2023/04/06 06:58:21;;;;;;;7.13;5.43;;;20.10;30.00;;;;;;5203505;28;20538;-49
2023/04/06 07:00:59;;;;;;;5.93;4.97;;;19.70;30.00;;;;;;5196928;28;20574;-49
2023/04/06 07:03:30;;;;;;;12.33;5.50;;;19.30;30.30;;;;;;5199132;28;20194;-49
2023/04/06 07:06:01;;;;;;;8.60;5.97;;;19.60;30.20;;;;;;5205423;28;20437;-48
2023/04/06 07:08:31;;;;;;;5.73;5.00;;;19.50;30.50;;;;;;5197859;28;21005;-50
2023/04/06 07:11:02;;;;;;;5.40;4.90;;;19.60;30.10;;;;;;5199613;28;20223;-48
2023/04/06 07:13:33;;;;;;;10.20;6.60;;;20.30;29.70;;;;;;5198208;28;20190;-48
2023/04/06 07:16:04;;;;;;;5.23;4.77;;;19.80;29.60;;;;;;5219731;28;20696;-49
2023/04/06 07:18:34;;;;;;;9.07;4.50;;;19.70;29.80;;;;;;5205342;28;20676;-48
2023/04/06 07:21:05;;;;;;;9.07;5.07;;;21.00;29.20;;;;;;5196438;28;20196;-49
2023/04/06 07:23:36;;;;;;;24.63;6.20;;;21.80;28.20;;;;;;5196698;28;20192;-48
2023/04/06 07:26:06;;;;;;;9.57;5.17;;;21.10;28.10;;;;;;5189123;28;20191;-49
2023/04/06 07:28:37;;;;;;;7.80;5.33;;;20.40;28.50;;;;;;5194938;28;20183;-49
2023/04/06 07:31:08;;;;;;;6.90;5.53;;;20.00;29.30;;;;;;5211393;28;20207;-49
2023/04/06 07:33:38;;;;;;;10.17;5.80;;;20.80;29.00;;;;;;5191270;28;20183;-50
2023/04/06 07:36:09;;;;;;;13.73;4.90;;;21.30;28.80;;;;;;5193400;28;20183;-48
2023/04/06 07:38:40;;;;;;;5.90;4.50;;;22.20;27.60;;;;;;5197540;28;20179;-48
2023/04/06 07:41:11;;;;;;;7.00;3.90;;;21.80;27.00;;;;;;5196479;28;20616;-48
2023/04/06 07:43:41;;;;;;;6.20;3.70;;;21.00;27.60;;;;;;5188716;28;20180;-49
2023/04/06 07:46:12;;;;;;;4.70;4.27;;;20.30;27.80;;;;;;5182021;28;20435;-47
2023/04/06 07:48:43;;;;;;;7.03;4.30;;;19.80;28.20;;;;;;5208810;28;20184;-50
2023/04/06 07:51:14;;;;;;;4.87;4.23;;;20.00;28.50;;;;;;5207495;28;20207;-50
2023/04/06 07:53:45;;;;;;;7.93;5.80;;;21.10;28.00;;;;;;5190253;28;20237;-52
2023/04/06 07:56:16;;;;;;;5.60;4.33;;;21.50;27.00;;;;;;5184687;28;20510;-48
2023/04/06 07:58:47;;;;;;;13.53;3.97;;;22.30;26.60;;;;;;5188981;28;20271;-50
2023/04/06 08:01:17;;;;;;;6.03;3.90;;;23.10;26.40;;;;;;5199630;28;20229;-54
2023/04/06 08:03:49;;;;;;;4.13;3.70;;;23.50;25.70;;;;;;5179883;28;20249;-52
2023/04/06 08:06:19;;;;;;;4.63;4.20;;;23.60;24.80;;;;;;5186738;28;20242;-50
2023/04/06 08:08:50;;;;;;;7.13;4.00;;;23.40;24.70;;;;;;5190250;28;20454;-48
2023/04/06 08:11:21;;;;;;;3.90;3.60;;;22.40;25.30;;;;;;5181400;28;20212;-49
2023/04/06 08:13:52;;;;;;;4.40;3.70;;;22.00;25.70;;;;;;5196423;28;20188;-51
2023/04/06 08:16:23;;;;;;;4.43;3.80;;;21.70;25.90;;;;;;5190070;28;20191;-50
2023/04/06 08:18:54;;;;;;;23.40;14.90;;;21.70;25.60;;;;;;5193458;28;20187;-49
2023/04/06 08:21:24;;;;;;;3.60;3.30;;;20.80;26.50;;;;;;5193658;28;20461;-48
2023/04/06 08:23:55;;;;;;;13.93;5.80;;;19.70;27.50;;;;;;5211959;28;20183;-48
2023/04/06 08:26:26;;;;;;;12.03;5.97;;;19.30;28.10;;;;;;5195558;28;20195;-49
2023/04/06 08:28:56;;;;;;;8.43;4.83;;;18.40;28.60;;;;;;5214263;28;20204;-50
2023/04/06 08:31:27;;;;;;;5.50;5.00;;;17.60;29.50;;;;;;5165565;28;20286;-49
2023/04/06 08:33:58;;;;;;;4.67;3.73;;;16.40;30.00;;;;;;5198432;28;20683;-48
2023/04/06 08:36:29;;;;;;;6.27;4.73;;;15.90;30.40;;;;;;5195122;28;20192;-51
2023/04/06 08:39:00;;;;;;;5.90;3.00;;;15.30;30.90;;;;;;5193340;28;20219;-50
2023/04/06 08:41:31;;;;;;;4.33;3.63;;;14.30;31.50;;;;;;5180076;28;20295;-56
2023/04/06 08:44:03;;;;;;;7.73;6.90;;;13.50;32.80;;;;;;5224378;28;20438;-51
2023/04/06 08:46:34;;;;;;;4.00;3.40;;;12.70;33.90;;;;;;5204427;28;20473;-49
2023/04/06 08:49:06;;;;;;;6.87;3.20;;;12.10;35.00;;;;;;5177247;28;20495;-50
2023/04/06 08:51:38;;;;;;;8.10;5.77;;;11.70;35.90;;;;;;5203634;28;20199;-49
2023/04/06 08:54:09;;;;;;;5.27;4.00;;;11.40;36.20;;;;;;5190733;28;20446;-47
2023/04/06 08:56:40;;;;;;;5.60;3.37;;;11.10;36.20;;;;;;5218889;28;20433;-49
2023/04/06 08:59:11;;;;;;;5.03;3.60;;;10.90;37.30;;;;;;5202052;28;20434;-49
2023/04/06 09:01:45;;;;;;;5.00;4.60;;;10.70;37.90;;;;;;5189407;28;20440;-48
2023/04/06 09:04:16;;;;;;;3.40;2.90;;;10.70;37.80;;;;;;5210504;28;21611;-48
2023/04/06 09:06:46;;;;;;;2.80;2.60;;;10.60;37.00;;;;;;5204001;28;20458;-53
2023/04/06 09:09:17;;;;;;;6.63;3.03;;;10.50;37.00;;;;;;5152660;28;20212;-49
2023/04/06 09:11:50;;;;;;;2.70;2.30;;;10.30;37.80;;;;;;5202446;28;20210;-50
2023/04/06 09:14:37;;;;;;;3.17;2.23;;;10.20;37.70;;;;;;5184623;28;20188;-52
2023/04/06 09:17:08;;;;;;;3.40;3.10;;;10.40;37.80;;;;;;5182552;28;20458;-53
2023/04/06 09:19:46;;;;;;;2.53;2.33;;;10.40;38.00;;;;;;5191021;28;21000;-50
2023/04/06 09:22:17;;;;;;;3.07;2.33;;;10.40;37.50;;;;;;5203458;28;20219;-52
2023/04/06 09:24:51;;;;;;;3.43;2.23;;;10.30;37.60;;;;;;5190022;28;20442;-54
2023/04/06 09:27:36;;;;;;;7.60;3.80;;;10.30;37.70;;;;;;5202406;28;20521;-48
2023/04/06 09:30:13;;;;;;;5.23;3.10;;;10.10;37.20;;;;;;5193730;28;20485;-49
2023/04/06 09:32:52;;;;;;;4.10;3.70;;;10.20;36.30;;;;;;5186346;28;20433;-49
2023/04/06 09:35:23;;;;;;;3.70;3.20;;;10.30;36.70;;;;;;5196730;28;20435;-51
2023/04/06 09:37:55;;;;;;;2.43;2.17;;;10.50;36.80;;;;;;5181455;28;20577;-48
2023/04/06 09:40:25;;;;;;;8.27;5.63;;;10.60;36.40;;;;;;5194534;28;20897;-48
2023/04/06 09:42:58;;;;;;;3.97;3.60;;;10.80;35.80;;;;;;5201193;28;20621;-49
2023/04/06 09:45:30;;;;;;;3.10;2.57;;;10.80;35.60;;;;;;5192864;28;20221;-50
2023/04/06 09:48:02;;;;;;;7.50;3.90;;;10.90;36.10;;;;;;5198837;28;20500;-51
2023/04/06 09:50:34;;;;;;;3.47;3.13;;;11.00;36.00;;;;;;5193069;28;20490;-51
2023/04/06 09:53:06;;;;;;;2.17;2.00;;;11.30;34.20;;;;;;5209803;28;20505;-49
2023/04/06 09:55:42;;;;;;;1.83;1.73;;;11.30;34.10;;;;;;5180928;28;20573;-49
2023/04/06 09:58:19;;;;;;;2.50;2.30;;;11.00;33.60;;;;;;5199707;28;20442;-50
2023/04/06 10:01:09;;;;;;;5.40;2.13;;;11.00;34.00;;;;;;5199488;28;20469;-49
2023/04/06 10:03:51;;;;;;;2.60;1.90;;;11.10;34.50;;;;;;5182261;28;20439;-51
2023/04/06 10:06:27;;;;;;;2.63;2.20;;;11.20;33.70;;;;;;5193115;28;20431;-47
2023/04/06 10:08:57;;;;;;;6.60;3.17;;;11.60;32.50;;;;;;5203837;28;20468;-52
2023/04/06 10:11:29;;;;;;;3.57;1.90;;;11.90;31.50;;;;;;5182747;28;20461;-49
2023/04/06 10:14:00;;;;;;;1.93;1.80;;;12.30;30.40;;;;;;5202686;28;20181;-49
2023/04/06 10:16:31;;;;;;;10.93;4.67;;;12.50;30.00;;;;;;5184217;28;20462;-51
2023/04/06 10:19:12;;;;;;;1.70;1.60;;;12.60;30.80;;;;;;5201355;28;20473;-53
2023/04/06 10:21:45;;;;;;;3.07;2.70;;;12.50;30.20;;;;;;5194939;28;20442;-52
2023/04/06 10:24:17;;;;;;;2.60;2.40;;;12.40;30.30;;;;;;5192440;28;20510;-53
2023/04/06 10:26:58;;;;;;;1.70;1.70;;;12.50;30.00;;;;;;5199749;28;20451;-52
2023/04/06 10:29:40;;;;;;;4.40;2.93;;;12.00;30.50;;;;;;5185212;28;22601;-54
2023/04/06 10:32:11;;;;;;;1.80;1.70;;;11.80;30.10;;;;;;5199469;28;20462;-50
2023/04/06 10:34:42;;;;;;;1.53;1.50;;;11.70;29.50;;;;;;5199286;28;20981;-52
2023/04/06 10:37:18;;;;;;;2.60;1.93;;;11.50;30.90;;;;;;5211689;28;20521;-49
2023/04/06 10:39:55;;;;;;;2.93;1.50;;;11.50;32.10;;;;;;5197260;28;20277;-50
2023/04/06 10:42:37;;;;;;;1.40;1.33;;;11.30;31.40;;;;;;5201345;28;20526;-50
2023/04/06 10:45:25;;;;;;;1.90;1.77;;;10.90;31.80;;;;;;5199789;28;20481;-50
2023/04/06 10:47:56;;;;;;;4.03;1.80;;;10.90;31.20;;;;;;5198960;28;20441;-49
2023/04/06 10:50:29;;;;;;;5.37;2.30;;;10.80;31.50;;;;;;5210592;28;20805;-50
2023/04/06 10:53:01;;;;;;;3.63;2.83;;;11.10;31.40;;;;;;5195293;28;20188;-47
2023/04/06 10:55:32;;;;;;;2.80;2.60;;;11.70;30.80;;;;;;5188716;28;21100;-49
2023/04/06 10:58:07;;;;;;;6.00;2.03;;;12.00;30.30;;;;;;5200913;28;20523;-48
2023/04/06 11:00:45;;;;;;;1.50;1.50;;;12.40;30.00;;;;;;5199834;28;20466;-50
2023/04/06 11:03:16;;;;;;;1.70;1.70;;;12.80;29.10;;;;;;5205040;28;20802;-49
2023/04/06 11:05:49;;;;;;;4.50;1.80;;;12.70;29.40;;;;;;5218869;28;20431;-51
2023/04/06 11:08:27;;;;;;;6.00;1.80;;;12.90;29.90;;;;;;5207077;28;20513;-52
2023/04/06 11:11:08;;;;;;;3.90;1.80;;;12.80;29.20;;;;;;5205608;28;20474;-50
2023/04/06 11:13:40;;;;;;;3.63;1.60;;;12.10;29.20;;;;;;5222636;28;21022;-50
2023/04/06 11:16:16;;;;;;;1.90;1.73;;;11.60;29.30;;;;;;5209335;28;20450;-50
2023/04/06 11:18:58;;;;;;;1.60;1.60;;;10.90;29.90;;;;;;5209806;28;20433;-50
2023/04/06 11:21:33;;;;;;;2.97;1.70;;;10.60;31.40;;;;;;5218659;28;21005;-49
2023/04/06 11:24:09;;;;;;;1.93;1.83;;;10.10;31.60;;;;;;5203963;28;20427;-49
2023/04/06 11:26:48;;;;;;;4.87;1.90;;;10.30;31.80;;;;;;5200152;28;20465;-50
2023/04/06 11:29:21;;;;;;;1.90;1.80;;;10.40;32.30;;;;;;5188045;28;21020;-49
2023/04/06 11:32:03;;;;;;;1.63;1.53;;;10.40;32.80;;;;;;5206261;28;20433;-50
2023/04/06 11:34:39;;;;;;;1.90;1.80;;;10.60;32.30;;;;;;5196909;28;20435;-49
2023/04/06 11:37:11;;;;;;;1.77;1.67;;;10.80;31.70;;;;;;5184491;28;23572;-49
2023/04/06 11:39:51;;;;;;;3.17;1.80;;;10.80;30.90;;;;;;5196942;28;20824;-47
2023/04/06 11:42:26;;;;;;;1.57;1.20;;;10.60;31.00;;;;;;5197713;28;20547;-47
2023/04/06 11:44:58;;;;;;;1.40;1.40;;;10.50;31.20;;;;;;5199857;28;20498;-48
2023/04/06 11:47:32;;;;;;;1.67;1.67;;;10.40;31.20;;;;;;5213144;28;20847;-48
2023/04/06 11:50:13;;;;;;;1.40;1.30;;;10.60;31.70;;;;;;5188655;28;20469;-50
2023/04/06 11:52:44;;;;;;;1.80;1.80;;;11.10;31.40;;;;;;5196280;28;20441;-51
2023/04/06 11:55:16;;;;;;;1.50;1.50;;;11.40;30.90;;;;;;5191752;28;20440;-48
2023/04/06 11:57:47;;;;;;;1.93;1.83;;;11.80;30.90;;;;;;5194589;28;20539;-52
2023/04/06 12:00:18;;;;;;;1.67;1.57;;;12.10;30.20;;;;;;5200876;28;20523;-49
2023/04/06 12:02:49;;;;;;;1.90;1.80;;;12.40;29.90;;;;;;5168404;28;20561;-49
2023/04/06 12:05:20;;;;;;;1.70;1.60;;;12.70;29.30;;;;;;5194215;28;20439;-50
2023/04/06 12:07:51;;;;;;;2.70;2.10;;;12.60;29.40;;;;;;5163634;28;20967;-52
2023/04/06 12:10:21;;;;;;;1.97;1.70;;;12.70;29.60;;;;;;5217856;28;20218;-51
2023/04/06 12:12:52;;;;;;;2.50;1.80;;;12.30;29.50;;;;;;5190248;28;20185;-51
2023/04/06 12:15:23;;;;;;;5.83;2.67;;;12.00;30.10;;;;;;5194358;28;20180;-48
2023/04/06 12:17:53;;;;;;;2.90;2.70;;;12.40;30.70;;;;;;5197763;28;20659;-55
2023/04/06 12:20:24;;;;;;;2.03;1.70;;;12.70;30.40;;;;;;5216700;28;20702;-52
2023/04/06 12:22:55;;;;;;;1.73;1.73;;;12.80;29.50;;;;;;5198473;28;20314;-50
2023/04/06 12:25:25;;;;;;;2.07;1.80;;;12.60;30.00;;;;;;5211655;28;20230;-49
2023/04/06 12:27:56;;;;;;;1.97;1.77;;;11.70;30.90;;;;;;5188615;28;20609;-49
2023/04/06 12:30:27;;;;;;;3.33;2.07;;;11.30;32.00;;;;;;5192506;28;20215;-50
2023/04/06 12:32:57;;;;;;;3.13;1.67;;;11.20;32.50;;;;;;5217728;28;20191;-49
2023/04/06 12:35:28;;;;;;;2.73;1.97;;;11.10;32.80;;;;;;5200312;28;20211;-48
2023/04/06 12:37:59;;;;;;;1.87;1.77;;;10.90;32.60;;;;;;5197545;28;20303;-49
2023/04/06 12:40:30;;;;;;;1.70;1.60;;;10.80;32.90;;;;;;5198155;28;20719;-50
2023/04/06 12:43:00;;;;;;;2.50;2.07;;;11.00;33.10;;;;;;5218405;28;20213;-50
2023/04/06 12:45:32;;;;;;;1.77;1.67;;;11.30;33.20;;;;;;5198014;28;20648;-49
2023/04/06 12:48:02;;;;;;;3.10;2.00;;;11.50;32.60;;;;;;5185118;28;20187;-49
2023/04/06 12:50:33;;;;;;;4.93;1.90;;;11.80;32.10;;;;;;5195801;28;20773;-49
2023/04/06 12:53:04;;;;;;;2.83;1.57;;;11.90;31.60;;;;;;5201430;28;20175;-49
2023/04/06 12:55:35;;;;;;;2.10;2.00;;;11.80;31.00;;;;;;5189582;28;20183;-48
2023/04/06 12:58:06;;;;;;;1.93;1.80;;;11.80;31.00;;;;;;5201172;28;20791;-50
2023/04/06 13:00:36;;;;;;;4.90;3.00;;;12.10;31.10;;;;;;5174701;28;20466;-47
2023/04/06 13:03:07;;;;;;;2.00;1.90;;;11.80;31.20;;;;;;5179311;28;20230;-51
2023/04/06 13:05:44;;;;;;;2.93;2.50;;;11.20;31.60;;;;;;5179042;28;20539;-52
2023/04/06 13:08:16;;;;;;;1.73;1.63;;;10.90;33.10;;;;;;5189094;28;20184;-52
2023/04/06 13:10:48;;;;;;;1.80;1.70;;;10.90;33.10;;;;;;5185977;28;20468;-50
2023/04/06 13:13:27;;;;;;;2.67;2.30;;;10.90;33.00;;;;;;5196239;28;20448;-49